This is the latest recevied weather packets stored in our database for station/object OE5HCE. If no packets are shown the sender has not sent any weather packets the latest 10 day(s).
| Time | Temp. | Humidity | Pressure | Rain* | Wind** | Luminosity | Snow |
|---|---|---|---|---|---|---|---|
| 1777747503 | 18.33° C | 38% | 1018.9 hPa | 0 mm | - | 0 W/m² | - |
| 1777746603 | 18.89° C | 35% | 1018.9 hPa | 0 mm | - | 0 W/m² | - |
| 1777745703 | 20° C | 34% | 1018.9 hPa | 0 mm | - | 0 W/m² | - |
| 1777744801 | 20.56° C | 32% | 1018.9 hPa | 0 mm | - | 9 W/m² | - |
| 1777743961 | 21.11° C | 31% | 1018.9 hPa | 0 mm | - | 12 W/m² | - |
| 1777743061 | 22.22° C | 30% | 1018.9 hPa | 0 mm | - | 21 W/m² | - |
| 1777742165 | 22.78° C | 27% | 1019 hPa | 0 mm | - | 46 W/m² | - |
| 1777741257 | 24.44° C | 25% | 1019.2 hPa | 0 mm | - | 84 W/m² | - |
| 1777740364 | 25° C | 21% | 1019.2 hPa | 0 mm | - | 190 W/m² | - |
| 1777739455 | 25° C | 21% | 1019.3 hPa | 0 mm | - | 236 W/m² | - |
| 1777738554 | 25° C | 21% | 1019.5 hPa | 0 mm | - | 276 W/m² | - |
| 1777737663 | 26.11° C | 22% | 1019.8 hPa | 0 mm | - | 318 W/m² | - |
| 1777736751 | 26.11° C | 23% | 1019.9 hPa | 0 mm | - | 360 W/m² | - |
| 1777735850 | 26.67° C | 23% | 1020.1 hPa | 0 mm | - | 403 W/m² | - |
| 1777734950 | 27.22° C | 21% | 1020.3 hPa | 0 mm | - | 443 W/m² | - |
| 1777734074 | 26.11° C | 25% | 1020.5 hPa | 0 mm | - | 482 W/m² | - |
| 1777733143 | 26.11° C | 24% | 1020.7 hPa | 0 mm | - | 520 W/m² | - |
| 1777732251 | 26.11° C | 26% | 1020.9 hPa | 0 mm | - | 557 W/m² | - |
| 1777731345 | 26.11° C | 25% | 1021 hPa | 0 mm | - | 591 W/m² | - |
| 1777730446 | 26.67° C | 28% | 1021.2 hPa | 0 mm | - | 626 W/m² | - |
| 1777729537 | 26.67° C | 25% | 1021.3 hPa | 0 mm | - | 656 W/m² | - |
| 1777728632 | 25° C | 29% | 1021.5 hPa | 0 mm | - | 686 W/m² | - |
| 1777727738 | 25° C | 29% | 1021.7 hPa | 0 mm | - | 708 W/m² | - |
| 1777726827 | 25° C | 32% | 1021.9 hPa | 0 mm | - | 724 W/m² | - |
| 1777725924 | 24.44° C | 31% | 1022 hPa | 0 mm | - | 751 W/m² | - |
* Rain latest hour (hover to see other rain measurements)
** Current wind speed in m/s (hover to see current wind gust speed)